Airfield :
LOGIN :

Register | Disclaimer

   EN    FR    IT 

 










Legend :    VFR   Marginal VFR   IFR   Intensive IFR   Very Intensive IFR
Visi :
Ceiling :
>= 8 km
>= 3000ft
5 to 8 km
1000 to 3000 ft
1500m to 5 km
500 to 1000 ft
800 to 1500m
200 to 500 ft
< 800m
< 200 ft
Symbols :   Thunderstorms  Fog  Heavy snow  Heavy precipitations  Wind > 20 kt
SIGMETs :     Misc.  Thunderstorms  Icing  Turbulence  Mountain Waves  Volcanic Ashes






- Airport Elevation : 963 ft
- IATA code : TGM


LRTM - Transilvania Târgu Mureş Int.

CURRENT METAR :
  • 300730Z VRB03KT CAVOK 09/02 Q1012

EXPIRED METARs :
  • 300700Z VRB01KT CAVOK 09/03 Q1012
  • 300630Z VRB01KT CAVOK 06/02 Q1011
  • 300600Z VRB01KT 8000 NSC 05/01 Q1011
  • 300530Z VRB02KT 8000 NSC 03/00 Q1011
  • 300500Z 36001KT 8000 NSC 02/M00 Q1011

TAF TAF LRTM
Valid from the 30 at 06:00 until the 30 at 15:00 UTC


300500Z 3006/3015 VRB04KT CAVOK
BECMG 3010/3012 31012KT



MET'MAP, your aeronautical weather chart ! - Copyright ORBIFLY December 2007 - Disclaimer

ORBIFLY MET'MAP TEAM :

Programming & Development : Alexandra Zaïnal
Concept & original design : Baudouin d'Aumeries
Assistance for programming : Marc-Olivier Méhu
Technical & hardware support : Manuel Goepfert

Contact : metmap@orbifly.com




SOURCES & CREDITS :

   NOAA